Terminal Aerodrome Forecast
Issued by NWS

Home | Current Version | Previous Version | Text Only | Print | Product List | Glossary On
Versions: 1 2 3 4 5 6 7 8 9 10 11 12 13 14 15 16 17 18 19 20 21 22 23
000
FTUS43 KAPX 220300 AAB
TAFAPN
TAF AMD
KAPN 220355Z 2204/2224 00000KT 2SM BR SCT003
      TEMPO 2204/2207 1/4SM FG VV002
     FM220700 00000KT 1/2SM FG VV002
     FM221100 00000KT 2SM BR SCT005
     FM221400 11006KT P6SM BKN030=

USA.gov is the U.S. government's official web portal to all federal, state and local government web resources and services.